createdAt,value
2022-11-30T00:00:54.422Z,99.99
2022-11-30T00:01:54.665Z,99.99
2022-11-30T00:02:54.493Z,99.99
2022-11-30T00:03:54.402Z,99.99
2022-11-30T00:04:54.375Z,99.99
2022-11-30T00:05:54.379Z,99.99
2022-11-30T00:06:54.373Z,99.99
2022-11-30T00:07:54.413Z,99.99
2022-11-30T00:08:54.346Z,99.99
2022-11-30T00:09:54.346Z,99.99
2022-11-30T00:10:54.331Z,99.99
2022-11-30T00:11:54.318Z,99.82
2022-11-30T00:12:54.312Z,99.72
2022-11-30T00:13:55.318Z,99.82
2022-11-30T00:14:54.327Z,99.87
2022-11-30T00:15:54.296Z,99.51
2022-11-30T00:16:54.336Z,99.97
2022-11-30T00:17:54.283Z,99.87
2022-11-30T00:18:54.269Z,99.87
2022-11-30T00:19:54.284Z,99.87
2022-11-30T00:20:54.256Z,99.66
2022-11-30T00:21:54.247Z,99.97
2022-11-30T00:22:54.243Z,99.93
2022-11-30T00:23:54.226Z,99.77
2022-11-30T00:24:54.218Z,99.77
2022-11-30T00:25:54.226Z,99.15
2022-11-30T00:26:54.198Z,99.99
2022-11-30T00:27:54.206Z,99.87
2022-11-30T00:28:54.194Z,99.99
2022-11-30T00:29:54.191Z,99.81
2022-11-30T00:30:54.266Z,99.87
2022-11-30T00:31:54.170Z,99.97
2022-11-30T00:32:54.179Z,99.66
2022-11-30T00:33:54.169Z,99.77
2022-11-30T00:34:54.159Z,99.97
2022-11-30T00:35:54.159Z,99.99
2022-11-30T00:36:54.143Z,99.99
2022-11-30T00:37:54.137Z,99.99
2022-11-30T00:38:54.126Z,99.99
2022-11-30T00:39:54.134Z,99.99
2022-11-30T00:40:54.158Z,99.99
2022-11-30T00:41:54.177Z,99.99
2022-11-30T00:42:54.098Z,99.99
2022-11-30T00:43:54.093Z,99.99
2022-11-30T00:44:54.077Z,99.99
2022-11-30T00:45:54.100Z,99.99
2022-11-30T00:46:54.076Z,99.99
2022-11-30T00:47:54.063Z,99.99
2022-11-30T00:48:54.058Z,99.99
2022-11-30T00:49:54.060Z,99.99
2022-11-30T00:50:54.073Z,99.99
2022-11-30T00:51:54.062Z,99.99
2022-11-30T00:52:54.028Z,99.99
2022-11-30T00:53:54.050Z,99.99
2022-11-30T00:54:54.020Z,99.99
2022-11-30T00:55:54.057Z,99.99
2022-11-30T00:56:54.026Z,99.99
2022-11-30T00:57:53.995Z,99.99
2022-11-30T00:58:53.990Z,99.99
2022-11-30T00:59:53.989Z,99.99
2022-11-30T01:00:54.112Z,99.99
2022-11-30T01:01:54.262Z,99.99
2022-11-30T01:02:53.996Z,99.99
2022-11-30T01:03:53.956Z,99.99
2022-11-30T01:04:53.946Z,99.99
2022-11-30T01:05:53.955Z,99.99
2022-11-30T01:06:53.934Z,99.99
2022-11-30T01:07:53.979Z,99.99
2022-11-30T01:08:53.933Z,99.99
2022-11-30T01:09:53.905Z,99.99
2022-11-30T01:10:53.924Z,99.99
2022-11-30T01:11:53.947Z,99.99
2022-11-30T01:12:53.902Z,99.99
2022-11-30T01:13:53.918Z,99.99
2022-11-30T01:14:53.883Z,99.99
2022-11-30T01:15:53.926Z,99.99
2022-11-30T01:16:56.382Z,99.99
2022-11-30T01:17:54.856Z,99.99
2022-11-30T01:18:53.841Z,99.99
2022-11-30T01:19:53.875Z,99.99
2022-11-30T01:20:53.829Z,99.99
2022-11-30T01:21:53.812Z,99.99
2022-11-30T01:22:53.819Z,99.99
2022-11-30T01:23:53.810Z,99.99
2022-11-30T01:24:53.810Z,99.99
2022-11-30T01:25:53.798Z,99.99
2022-11-30T01:26:53.793Z,99.99
2022-11-30T01:27:53.786Z,99.99
2022-11-30T01:28:53.781Z,99.99
2022-11-30T01:29:53.770Z,99.99
2022-11-30T01:30:53.857Z,99.99
2022-11-30T01:31:53.747Z,99.99
2022-11-30T01:32:54.747Z,99.99
2022-11-30T01:33:53.740Z,99.99
2022-11-30T01:34:53.729Z,99.99
2022-11-30T01:35:53.729Z,99.99
2022-11-30T01:36:53.735Z,99.99
2022-11-30T01:37:53.702Z,99.99
2022-11-30T01:38:53.701Z,99.99
2022-11-30T01:39:53.709Z,99.99
2022-11-30T01:40:53.690Z,99.99
2022-11-30T01:41:53.700Z,99.99
2022-11-30T01:42:53.679Z,99.99
2022-11-30T01:43:53.658Z,99.99
2022-11-30T01:44:53.680Z,99.99
2022-11-30T01:45:53.691Z,99.99
2022-11-30T01:46:53.657Z,99.99
2022-11-30T01:47:53.645Z,99.99
2022-11-30T01:48:53.638Z,99.72
2022-11-30T01:49:53.638Z,99.62
2022-11-30T01:50:53.614Z,99.97
2022-11-30T01:51:53.616Z,99.93
2022-11-30T01:52:53.606Z,99.51
2022-11-30T01:53:53.591Z,99.82
2022-11-30T01:54:53.585Z,99.72
2022-11-30T01:55:53.952Z,99.82
2022-11-30T01:56:53.573Z,99.62
2022-11-30T01:57:53.594Z,99.93
2022-11-30T01:58:53.570Z,99.93
2022-11-30T01:59:53.549Z,99.10
2022-11-30T02:00:53.553Z,99.10
2022-11-30T02:01:53.589Z,98.79
2022-11-30T02:02:53.602Z,98.90
2022-11-30T02:03:53.535Z,99.21
2022-11-30T02:04:53.626Z,98.79
2022-11-30T02:05:53.521Z,98.79
2022-11-30T02:06:53.510Z,99.51
2022-11-30T02:07:53.619Z,98.28
2022-11-30T02:08:53.505Z,98.28
2022-11-30T02:09:53.493Z,98.38
2022-11-30T02:10:53.491Z,98.90
2022-11-30T02:11:53.485Z,99.10
2022-11-30T02:12:53.477Z,98.69
2022-11-30T02:13:53.474Z,98.79
2022-11-30T02:14:53.522Z,98.38
2022-11-30T02:15:53.482Z,98.69
2022-11-30T02:16:53.442Z,98.59
2022-11-30T02:17:53.465Z,98.38
2022-11-30T02:18:53.433Z,98.59
2022-11-30T02:19:53.453Z,98.28
2022-11-30T02:20:53.417Z,98.38
2022-11-30T02:21:53.409Z,98.49
2022-11-30T02:22:53.420Z,98.59
2022-11-30T02:23:53.398Z,97.97
2022-11-30T02:24:53.394Z,98.59
2022-11-30T02:25:53.373Z,98.18
2022-11-30T02:26:53.377Z,98.49
2022-11-30T02:27:53.367Z,98.33
2022-11-30T02:28:53.370Z,98.38
2022-11-30T02:29:53.370Z,98.18
2022-11-30T02:30:53.375Z,98.28
2022-11-30T02:31:53.333Z,98.38
2022-11-30T02:32:53.341Z,98.49
2022-11-30T02:33:53.325Z,98.38
2022-11-30T02:34:53.325Z,98.33
2022-11-30T02:35:55.272Z,98.49
2022-11-30T02:36:54.310Z,98.49
2022-11-30T02:37:53.306Z,98.28
2022-11-30T02:38:53.298Z,97.97
2022-11-30T02:39:53.285Z,97.77
2022-11-30T02:40:53.292Z,97.97
2022-11-30T02:41:53.277Z,97.92
2022-11-30T02:42:53.265Z,98.18
2022-11-30T02:43:53.261Z,97.52
2022-11-30T02:44:53.255Z,97.52
2022-11-30T02:45:53.298Z,97.97
2022-11-30T02:46:53.246Z,97.56
2022-11-30T02:47:53.233Z,97.97
2022-11-30T02:48:53.225Z,97.66
2022-11-30T02:49:53.218Z,97.56
2022-11-30T02:50:53.333Z,97.97
2022-11-30T02:51:53.204Z,97.77
2022-11-30T02:52:53.181Z,97.66
2022-11-30T02:53:54.193Z,97.97
2022-11-30T02:54:53.181Z,98.49
2022-11-30T02:55:53.189Z,98.38
2022-11-30T02:56:53.167Z,97.97
2022-11-30T02:57:53.156Z,97.77
2022-11-30T02:58:53.153Z,98.49
2022-11-30T02:59:53.145Z,98.69
2022-11-30T03:00:53.140Z,98.49
2022-11-30T03:01:53.160Z,98.38
2022-11-30T03:02:53.163Z,98.33
2022-11-30T03:03:53.120Z,98.43
2022-11-30T03:04:53.112Z,99.05
2022-11-30T03:05:53.117Z,99.91
2022-11-30T03:06:53.105Z,99.99
2022-11-30T03:07:53.191Z,99.99
2022-11-30T03:08:53.099Z,99.99
2022-11-30T03:09:53.089Z,99.99
2022-11-30T03:10:53.071Z,99.99
2022-11-30T03:11:53.069Z,99.99
2022-11-30T03:12:53.083Z,99.99
2022-11-30T03:13:53.057Z,99.99
2022-11-30T03:14:53.060Z,99.77
2022-11-30T03:15:53.164Z,99.82
2022-11-30T03:16:53.031Z,99.62
2022-11-30T03:17:53.011Z,99.51
2022-11-30T03:18:53.039Z,99.99
2022-11-30T03:19:53.048Z,99.82
2022-11-30T03:20:53.040Z,99.41
2022-11-30T03:21:53.012Z,99.82
2022-11-30T03:22:53.020Z,99.41
2022-11-30T03:23:53.016Z,98.69
2022-11-30T03:24:52.980Z,99.21
2022-11-30T03:25:52.964Z,98.69
2022-11-30T03:26:52.955Z,98.74
2022-11-30T03:27:52.960Z,99.31
2022-11-30T03:28:52.955Z,99.77
2022-11-30T03:29:52.939Z,99.81
2022-11-30T03:30:52.971Z,99.99
2022-11-30T03:31:52.922Z,99.99
2022-11-30T03:32:52.913Z,99.99
2022-11-30T03:33:52.913Z,99.99
2022-11-30T03:34:52.917Z,99.99
2022-11-30T03:35:52.897Z,99.99
2022-11-30T03:36:52.881Z,99.99
2022-11-30T03:37:53.881Z,99.99
2022-11-30T03:38:52.921Z,99.99
2022-11-30T03:39:57.974Z,99.97
2022-11-30T03:40:54.861Z,99.77
2022-11-30T03:41:52.853Z,99.97
2022-11-30T03:42:52.845Z,99.82
2022-11-30T03:43:52.845Z,99.93
2022-11-30T03:44:52.849Z,99.72
2022-11-30T03:45:52.834Z,99.99
2022-11-30T03:46:52.841Z,99.72
2022-11-30T03:47:52.816Z,99.93
2022-11-30T03:48:52.833Z,99.62
2022-11-30T03:49:52.800Z,99.72
2022-11-30T03:50:52.797Z,99.00
2022-11-30T03:51:52.791Z,99.00
2022-11-30T03:52:52.807Z,99.10
2022-11-30T03:53:52.777Z,99.41
2022-11-30T03:54:52.765Z,99.00
2022-11-30T03:55:52.757Z,98.38
2022-11-30T03:56:52.750Z,98.69
2022-11-30T03:57:52.758Z,99.21
2022-11-30T03:58:52.728Z,98.90
2022-11-30T03:59:52.728Z,98.59
2022-11-30T04:00:52.741Z,99.10
2022-11-30T04:01:52.744Z,99.21
2022-11-30T04:02:52.767Z,98.43
2022-11-30T04:03:52.699Z,98.49
2022-11-30T04:04:52.684Z,98.69
2022-11-30T04:05:52.701Z,98.74
2022-11-30T04:06:52.695Z,98.79
2022-11-30T04:07:52.696Z,99.21
2022-11-30T04:08:52.665Z,98.79
2022-11-30T04:09:52.660Z,98.94
2022-11-30T04:10:52.652Z,99.35
2022-11-30T04:11:52.657Z,99.60
2022-11-30T04:12:52.633Z,99.91
2022-11-30T04:13:52.644Z,99.99
2022-11-30T04:14:52.620Z,99.87
2022-11-30T04:15:52.756Z,99.99
2022-11-30T04:16:52.614Z,99.99
2022-11-30T04:17:52.597Z,99.99
2022-11-30T04:18:52.620Z,99.99
2022-11-30T04:19:52.581Z,99.99
2022-11-30T04:20:52.581Z,99.99
2022-11-30T04:21:52.573Z,99.99
2022-11-30T04:22:52.568Z,99.99
2022-11-30T04:23:52.565Z,99.99
2022-11-30T04:24:52.569Z,99.99
2022-11-30T04:25:52.568Z,99.99
2022-11-30T04:26:52.532Z,99.99
2022-11-30T04:27:52.533Z,99.99
2022-11-30T04:28:52.524Z,99.99
2022-11-30T04:29:52.533Z,99.99
2022-11-30T04:30:52.509Z,99.99
2022-11-30T04:31:52.504Z,99.99
2022-11-30T04:32:52.497Z,99.99
2022-11-30T04:33:52.501Z,99.99
2022-11-30T04:34:52.482Z,99.99
2022-11-30T04:35:52.477Z,99.99
2022-11-30T04:36:56.076Z,99.99
2022-11-30T04:37:54.464Z,99.99
2022-11-30T04:38:52.469Z,99.99
2022-11-30T04:39:52.470Z,99.99
2022-11-30T04:40:52.448Z,99.99
2022-11-30T04:41:52.445Z,99.99
2022-11-30T04:42:52.426Z,99.82
2022-11-30T04:43:52.422Z,99.93
2022-11-30T04:44:52.427Z,99.99
2022-11-30T04:45:52.416Z,99.51
2022-11-30T04:46:52.483Z,99.62
2022-11-30T04:47:52.401Z,99.82
2022-11-30T04:48:52.384Z,99.82
2022-11-30T04:49:52.388Z,99.82
2022-11-30T04:50:52.397Z,99.21
2022-11-30T04:51:52.366Z,99.05
2022-11-30T04:52:52.363Z,98.84
2022-11-30T04:53:52.359Z,99.87
2022-11-30T04:54:52.354Z,99.91
2022-11-30T04:55:52.376Z,99.81
2022-11-30T04:56:52.339Z,99.81
2022-11-30T04:57:52.322Z,99.77
2022-11-30T04:58:52.321Z,99.99
2022-11-30T04:59:52.324Z,99.99
2022-11-30T05:00:52.320Z,99.99
2022-11-30T05:01:52.334Z,99.99
2022-11-30T05:02:53.274Z,99.99
2022-11-30T05:03:53.279Z,99.99
2022-11-30T05:04:52.358Z,99.99
2022-11-30T05:05:52.284Z,99.99
2022-11-30T05:06:52.265Z,99.99
2022-11-30T05:07:52.342Z,99.99
2022-11-30T05:08:52.247Z,99.99
2022-11-30T05:09:52.240Z,99.99
2022-11-30T05:10:53.218Z,99.99
2022-11-30T05:11:53.244Z,99.99
2022-11-30T05:12:52.221Z,99.99
2022-11-30T05:13:52.208Z,99.99
2022-11-30T05:14:52.197Z,99.72
2022-11-30T05:15:52.234Z,99.72
2022-11-30T05:16:52.200Z,99.82
2022-11-30T05:17:52.192Z,99.51
2022-11-30T05:18:52.188Z,99.72
2022-11-30T05:19:52.163Z,99.62
2022-11-30T05:20:52.156Z,99.93
2022-11-30T05:21:52.163Z,99.99
2022-11-30T05:22:52.164Z,99.31
2022-11-30T05:23:52.176Z,99.21
2022-11-30T05:24:52.139Z,99.31
2022-11-30T05:25:52.123Z,98.79
2022-11-30T05:26:52.112Z,98.59
2022-11-30T05:27:53.122Z,98.79
2022-11-30T05:28:52.120Z,98.18
2022-11-30T05:29:52.099Z,98.38
2022-11-30T05:30:52.091Z,99.10
2022-11-30T05:31:52.159Z,98.38
2022-11-30T05:32:52.092Z,99.21
2022-11-30T05:33:52.072Z,99.10
2022-11-30T05:34:52.277Z,99.10
2022-11-30T05:35:53.069Z,98.69
2022-11-30T05:36:52.051Z,98.49
2022-11-30T05:37:52.064Z,98.74
2022-11-30T05:38:52.043Z,99.99
2022-11-30T05:39:52.038Z,99.66
2022-11-30T05:40:52.027Z,99.99
2022-11-30T05:41:52.021Z,99.35
2022-11-30T05:42:53.071Z,99.71
2022-11-30T05:43:52.044Z,99.77
2022-11-30T05:44:52.003Z,99.99
2022-11-30T05:45:51.997Z,99.99
2022-11-30T05:46:52.018Z,99.99
2022-11-30T05:47:51.986Z,99.99
2022-11-30T05:48:51.980Z,99.99
2022-11-30T05:49:51.955Z,99.99
2022-11-30T05:50:51.956Z,99.99
2022-11-30T05:51:51.957Z,99.99
2022-11-30T05:52:52.004Z,99.99
2022-11-30T05:53:51.945Z,99.99
2022-11-30T05:54:51.932Z,99.99
2022-11-30T05:55:51.916Z,99.99
2022-11-30T05:56:54.992Z,99.99
2022-11-30T05:57:52.931Z,99.99
2022-11-30T05:58:51.901Z,99.99
2022-11-30T05:59:51.918Z,99.99
2022-11-30T06:00:51.920Z,99.99
2022-11-30T06:01:52.159Z,99.99
2022-11-30T06:02:52.031Z,99.99
2022-11-30T06:03:51.929Z,99.99
2022-11-30T06:04:52.063Z,99.99
2022-11-30T06:05:51.876Z,99.99
2022-11-30T06:06:51.853Z,99.99
2022-11-30T06:07:51.938Z,99.99
2022-11-30T06:08:51.835Z,99.99
2022-11-30T06:09:51.828Z,99.99
2022-11-30T06:10:51.843Z,99.99
2022-11-30T06:11:51.823Z,99.99
2022-11-30T06:12:51.808Z,99.99
2022-11-30T06:13:51.787Z,99.99
2022-11-30T06:14:51.795Z,99.99
2022-11-30T06:15:51.807Z,99.99
2022-11-30T06:16:51.810Z,99.99
2022-11-30T06:17:51.776Z,99.99
2022-11-30T06:18:51.763Z,99.99
2022-11-30T06:19:51.748Z,99.99
2022-11-30T06:20:51.787Z,99.99
2022-11-30T06:21:51.743Z,99.99
2022-11-30T06:22:51.740Z,99.99
2022-11-30T06:23:51.718Z,99.99
2022-11-30T06:24:51.719Z,99.99
2022-11-30T06:25:51.711Z,99.99
2022-11-30T06:26:51.701Z,99.99
2022-11-30T06:27:51.693Z,99.99
2022-11-30T06:28:51.715Z,99.99
2022-11-30T06:29:51.683Z,99.99
2022-11-30T06:30:51.679Z,99.99
2022-11-30T06:31:51.750Z,99.99
2022-11-30T06:32:51.661Z,99.99
2022-11-30T06:33:51.672Z,99.99
2022-11-30T06:34:51.644Z,99.99
2022-11-30T06:35:51.631Z,99.99
2022-11-30T06:36:51.628Z,99.99
2022-11-30T06:37:51.624Z,99.99
2022-11-30T06:38:51.640Z,99.99
2022-11-30T06:40:05.900Z,99.99
2022-11-30T06:40:53.607Z,99.99
2022-11-30T06:41:54.610Z,99.99
2022-11-30T06:42:52.595Z,99.99
2022-11-30T06:43:51.585Z,99.99
2022-11-30T06:44:51.608Z,99.99
2022-11-30T06:45:51.583Z,99.99
2022-11-30T06:46:51.572Z,99.99
2022-11-30T06:47:51.560Z,99.99
2022-11-30T06:48:51.550Z,99.99
2022-11-30T06:49:51.543Z,99.99
2022-11-30T06:50:51.557Z,99.99
2022-11-30T06:51:51.515Z,99.99
2022-11-30T06:52:51.511Z,99.99
2022-11-30T06:53:51.507Z,99.99
2022-11-30T06:54:51.504Z,99.99
2022-11-30T06:55:51.516Z,99.99
2022-11-30T06:56:51.498Z,99.99
2022-11-30T06:57:51.479Z,99.99
2022-11-30T06:58:51.520Z,99.99
2022-11-30T06:59:51.507Z,99.99
2022-11-30T07:00:51.517Z,99.99
2022-11-30T07:01:51.494Z,99.99
2022-11-30T07:02:51.471Z,99.99
2022-11-30T07:03:51.495Z,99.99
2022-11-30T07:04:51.428Z,99.99
2022-11-30T07:05:51.432Z,99.99
2022-11-30T07:06:51.420Z,99.99
2022-11-30T07:07:51.471Z,99.99
2022-11-30T07:08:51.407Z,99.99
2022-11-30T07:09:51.400Z,99.99
2022-11-30T07:10:51.399Z,99.99
2022-11-30T07:11:51.399Z,99.99
2022-11-30T07:12:51.385Z,99.99
2022-11-30T07:13:51.387Z,99.99
2022-11-30T07:14:51.372Z,99.99
2022-11-30T07:15:51.360Z,99.99
2022-11-30T07:16:51.371Z,99.99
2022-11-30T07:17:51.356Z,99.99
2022-11-30T07:18:51.351Z,99.99
2022-11-30T07:19:51.341Z,99.99
2022-11-30T07:20:51.328Z,99.99
2022-11-30T07:21:51.332Z,99.99
2022-11-30T07:22:51.311Z,99.99
2022-11-30T07:23:56.279Z,99.99
2022-11-30T07:24:52.303Z,99.99
2022-11-30T07:25:51.292Z,99.98
2022-11-30T07:26:51.297Z,99.82
2022-11-30T07:27:51.295Z,99.93
2022-11-30T07:28:51.267Z,99.62
2022-11-30T07:29:51.260Z,99.93
2022-11-30T07:30:51.254Z,99.93
2022-11-30T07:31:51.423Z,99.72
2022-11-30T07:32:51.231Z,99.82
2022-11-30T07:33:51.236Z,99.72
2022-11-30T07:34:51.348Z,99.72
2022-11-30T07:35:51.215Z,99.72
2022-11-30T07:36:51.218Z,99.82
2022-11-30T07:37:51.199Z,99.72
2022-11-30T07:38:51.203Z,99.82
2022-11-30T07:39:51.186Z,99.51
2022-11-30T07:40:51.179Z,99.82
2022-11-30T07:41:51.172Z,99.57
2022-11-30T07:42:51.188Z,99.82
2022-11-30T07:43:51.163Z,99.82
2022-11-30T07:44:55.388Z,99.16
2022-11-30T07:45:53.190Z,99.05
2022-11-30T07:46:51.139Z,98.90
2022-11-30T07:47:51.151Z,99.21
2022-11-30T07:48:51.124Z,98.44
2022-11-30T07:49:51.120Z,99.98
2022-11-30T07:50:51.114Z,99.88
2022-11-30T07:51:51.100Z,98.75
2022-11-30T07:52:51.158Z,99.16
2022-11-30T07:53:51.089Z,99.16
2022-11-30T07:54:51.109Z,98.65
2022-11-30T07:55:56.744Z,98.44
2022-11-30T07:56:53.091Z,98.85
2022-11-30T07:57:51.065Z,98.85
2022-11-30T07:58:51.049Z,99.05
2022-11-30T07:59:51.049Z,98.75
2022-11-30T08:00:51.105Z,98.44
2022-11-30T08:01:51.129Z,98.44
2022-11-30T08:02:51.031Z,99.16
2022-11-30T08:03:51.020Z,99.16
2022-11-30T08:04:51.453Z,99.77
2022-11-30T08:05:50.995Z,98.33
2022-11-30T08:06:50.996Z,98.24
2022-11-30T08:07:51.022Z,98.75
2022-11-30T08:08:50.995Z,99.47
2022-11-30T08:09:51.008Z,98.65
2022-11-30T08:10:51.028Z,98.65
2022-11-30T08:11:50.951Z,99.37
2022-11-30T08:12:50.946Z,99.42
2022-11-30T08:13:50.952Z,98.65
2022-11-30T08:15:18.836Z,99.26
2022-11-30T08:15:52.934Z,98.44
2022-11-30T08:16:50.948Z,98.39
2022-11-30T08:17:50.910Z,98.24
2022-11-30T08:18:50.895Z,98.13
2022-11-30T08:19:50.906Z,98.75
2022-11-30T08:20:50.884Z,98.54
2022-11-30T08:21:50.879Z,98.33
2022-11-30T08:22:50.870Z,98.08
2022-11-30T08:23:50.919Z,98.39
2022-11-30T08:24:51.084Z,97.99
2022-11-30T08:25:50.855Z,97.99
2022-11-30T08:26:50.891Z,98.29
2022-11-30T08:27:50.828Z,98.29
2022-11-30T08:28:51.829Z,98.39
2022-11-30T08:29:50.834Z,98.60
2022-11-30T08:30:50.891Z,98.60
2022-11-30T08:31:50.804Z,98.39
2022-11-30T08:32:50.812Z,98.50
2022-11-30T08:33:50.798Z,98.50
2022-11-30T08:34:50.944Z,98.50
2022-11-30T08:35:50.803Z,98.50
2022-11-30T08:36:51.944Z,97.88
2022-11-30T08:37:51.775Z,97.99
2022-11-30T08:38:50.783Z,97.67
2022-11-30T08:39:50.748Z,98.60
2022-11-30T08:40:50.752Z,97.88
2022-11-30T08:41:50.748Z,97.57
2022-11-30T08:42:50.736Z,97.27
2022-11-30T08:43:50.748Z,97.37
2022-11-30T08:44:50.715Z,97.42
2022-11-30T08:45:54.506Z,97.16
2022-11-30T08:46:53.077Z,97.47
2022-11-30T08:47:51.704Z,97.42
2022-11-30T08:48:50.687Z,98.04
2022-11-30T08:49:50.688Z,97.22
2022-11-30T08:50:50.714Z,97.22
2022-11-30T08:52:52.664Z,97.83
2022-11-30T08:53:50.661Z,97.83
2022-11-30T08:54:51.176Z,97.73
2022-11-30T08:55:50.648Z,97.42
2022-11-30T08:56:50.660Z,97.32
2022-11-30T08:57:50.628Z,97.83
2022-11-30T08:58:50.632Z,97.42
2022-11-30T08:59:50.607Z,97.42
2022-11-30T09:01:50.613Z,97.63
2022-11-30T09:02:50.673Z,96.40
2022-11-30T09:03:50.585Z,96.30
2022-11-30T09:04:50.585Z,96.60
2022-11-30T09:05:50.598Z,96.40
2022-11-30T09:06:50.565Z,96.45
2022-11-30T09:07:50.635Z,96.97
2022-11-30T09:08:50.553Z,95.78
2022-11-30T09:09:50.549Z,96.45
2022-11-30T09:10:50.552Z,96.40
2022-11-30T09:11:50.538Z,96.56
2022-11-30T09:12:50.563Z,96.45
2022-11-30T09:13:50.529Z,96.35
2022-11-30T09:14:56.027Z,96.04
2022-11-30T09:15:52.580Z,95.94
2022-11-30T09:16:50.504Z,95.94
2022-11-30T09:17:50.507Z,95.64
2022-11-30T09:18:50.512Z,95.69
2022-11-30T09:19:50.487Z,96.20
2022-11-30T09:20:50.472Z,95.32
2022-11-30T09:21:52.245Z,95.02
2022-11-30T09:22:51.453Z,95.12
2022-11-30T09:23:50.467Z,95.02
2022-11-30T09:24:50.795Z,94.92
2022-11-30T09:25:50.433Z,95.02
2022-11-30T09:26:50.439Z,95.02
2022-11-30T09:27:50.417Z,94.81
2022-11-30T09:28:50.456Z,94.81
2022-11-30T09:29:50.415Z,95.53
2022-11-30T09:30:50.488Z,95.49
2022-11-30T09:31:50.391Z,95.59
2022-11-30T09:32:50.441Z,95.49
2022-11-30T09:33:50.391Z,95.59
2022-11-30T09:34:51.027Z,95.28
2022-11-30T09:35:50.371Z,94.77
2022-11-30T09:36:50.378Z,94.98
2022-11-30T09:37:50.353Z,95.07
2022-11-30T09:38:50.351Z,95.28
2022-11-30T09:39:50.361Z,94.77
2022-11-30T09:40:50.335Z,94.87
2022-11-30T09:41:50.346Z,94.46
2022-11-30T09:42:50.327Z,95.18
2022-11-30T09:43:50.306Z,95.18
2022-11-30T09:44:50.620Z,94.77
2022-11-30T09:45:50.356Z,94.56
2022-11-30T09:46:50.298Z,94.56
2022-11-30T09:47:50.275Z,94.26
2022-11-30T09:48:50.273Z,94.56
2022-11-30T09:49:50.266Z,94.87
2022-11-30T09:50:50.260Z,95.18
2022-11-30T09:51:50.258Z,94.77
2022-11-30T09:52:50.252Z,94.77
2022-11-30T09:53:50.234Z,94.46
2022-11-30T09:54:50.437Z,94.77
2022-11-30T09:55:50.262Z,94.56
2022-11-30T09:56:50.218Z,94.46
2022-11-30T09:57:50.243Z,95.07
2022-11-30T09:58:50.195Z,94.36
2022-11-30T09:59:50.194Z,94.51
2022-11-30T10:00:50.196Z,94.30
2022-11-30T10:01:55.368Z,94.81
2022-11-30T10:02:52.373Z,94.55
2022-11-30T10:03:51.179Z,94.76
2022-11-30T10:04:50.295Z,94.96
2022-11-30T10:05:50.152Z,94.85
2022-11-30T10:06:50.159Z,95.57
2022-11-30T10:07:50.231Z,95.27
2022-11-30T10:08:50.995Z,95.06
2022-11-30T10:10:09.364Z,94.96
2022-11-30T10:10:52.115Z,95.06
2022-11-30T10:11:50.131Z,95.06
2022-11-30T10:12:50.114Z,95.27
2022-11-30T10:13:50.116Z,95.68
2022-11-30T10:14:50.476Z,96.56
2022-11-30T10:15:50.129Z,96.15
2022-11-30T10:16:50.078Z,95.84
2022-11-30T10:17:50.070Z,96.04
2022-11-30T10:18:50.057Z,96.35
2022-11-30T10:19:50.067Z,96.04
2022-11-30T10:20:50.068Z,96.15
2022-11-30T10:21:50.058Z,95.94
2022-11-30T10:22:50.046Z,96.04
2022-11-30T10:23:50.039Z,95.53
2022-11-30T10:24:50.275Z,95.43
2022-11-30T10:25:50.132Z,95.39
2022-11-30T10:26:50.009Z,95.12
2022-11-30T10:27:50.017Z,94.96
2022-11-30T10:28:50.115Z,95.74
2022-11-30T10:29:49.982Z,96.35
2022-11-30T10:30:50.158Z,96.35
2022-11-30T10:31:49.978Z,95.53
2022-11-30T10:32:49.979Z,95.02
2022-11-30T10:33:50.020Z,95.32
2022-11-30T10:34:50.175Z,95.43
2022-11-30T10:35:49.947Z,96.25
2022-11-30T10:36:49.964Z,96.41
2022-11-30T10:37:49.965Z,95.49
2022-11-30T10:38:49.950Z,95.90
2022-11-30T10:39:49.931Z,96.20
2022-11-30T10:40:49.932Z,95.59
2022-11-30T10:41:49.918Z,95.79
2022-11-30T10:42:49.905Z,94.87
2022-11-30T10:43:49.904Z,94.98
2022-11-30T10:44:50.284Z,94.56
2022-11-30T10:45:49.890Z,94.77
2022-11-30T10:46:49.896Z,94.98
2022-11-30T10:47:50.141Z,94.98
2022-11-30T10:48:49.860Z,94.73
2022-11-30T10:49:49.870Z,95.28
2022-11-30T10:50:49.843Z,94.87
2022-11-30T10:51:49.855Z,94.87
2022-11-30T10:52:49.854Z,95.03
2022-11-30T10:53:49.834Z,95.14
2022-11-30T10:54:49.994Z,94.73
2022-11-30T10:55:49.830Z,95.03
2022-11-30T10:56:49.811Z,94.99
2022-11-30T10:57:49.830Z,94.42
2022-11-30T10:58:49.790Z,94.01
2022-11-30T10:59:50.293Z,94.73
2022-11-30T11:00:49.778Z,94.48
2022-11-30T11:01:49.806Z,94.73
2022-11-30T11:02:49.841Z,94.37
2022-11-30T11:03:49.777Z,93.70
2022-11-30T11:04:49.755Z,94.01
2022-11-30T11:05:49.750Z,93.90
2022-11-30T11:06:49.765Z,94.11
2022-11-30T11:07:49.781Z,94.32
2022-11-30T11:08:49.734Z,94.62
2022-11-30T11:09:49.922Z,94.73
2022-11-30T11:10:49.728Z,94.77
2022-11-30T11:11:49.722Z,94.62
2022-11-30T11:12:49.730Z,94.15
2022-11-30T11:13:49.694Z,94.32
2022-11-30T11:14:49.691Z,94.52
2022-11-30T11:15:49.716Z,94.62
2022-11-30T11:16:49.677Z,94.01
2022-11-30T11:17:49.670Z,94.46
2022-11-30T11:18:49.702Z,94.05
2022-11-30T11:19:49.928Z,94.05
2022-11-30T11:20:53.967Z,93.74
2022-11-30T11:21:50.638Z,93.95
2022-11-30T11:22:49.641Z,93.85
2022-11-30T11:23:49.641Z,94.36
2022-11-30T11:24:49.619Z,94.26
2022-11-30T11:25:49.610Z,94.32
2022-11-30T11:26:49.616Z,94.56
2022-11-30T11:27:49.607Z,93.64
2022-11-30T11:28:49.614Z,93.85
2022-11-30T11:29:49.823Z,93.64
2022-11-30T11:30:49.590Z,94.05
2022-11-30T11:31:49.571Z,94.05
2022-11-30T11:32:49.564Z,94.36
2022-11-30T11:33:49.575Z,94.36
2022-11-30T11:34:51.428Z,94.36
2022-11-30T11:35:50.554Z,94.56
2022-11-30T11:36:49.564Z,94.56
2022-11-30T11:37:49.536Z,93.44
2022-11-30T11:38:49.523Z,94.05
2022-11-30T11:39:49.665Z,93.90
2022-11-30T11:40:49.515Z,94.11
2022-11-30T11:41:49.530Z,94.26
2022-11-30T11:42:49.509Z,93.80
2022-11-30T11:43:49.497Z,94.01
2022-11-30T11:44:49.495Z,93.70
2022-11-30T11:45:49.482Z,94.21
2022-11-30T11:46:49.518Z,93.80
2022-11-30T11:47:49.482Z,93.70
2022-11-30T11:48:49.465Z,93.90
2022-11-30T11:49:49.632Z,93.80
2022-11-30T11:51:06.213Z,93.70
2022-11-30T11:51:51.472Z,93.80
2022-11-30T11:52:49.439Z,93.86
2022-11-30T11:53:53.326Z,93.39
2022-11-30T11:54:50.426Z,94.11
2022-11-30T11:55:49.425Z,93.76
2022-11-30T11:56:49.411Z,93.29
2022-11-30T11:57:49.423Z,93.25
2022-11-30T11:58:49.401Z,92.83
2022-11-30T11:59:49.618Z,92.16
2022-11-30T12:00:49.384Z,92.36
2022-11-30T12:01:49.385Z,92.74
2022-11-30T12:02:49.472Z,92.36
2022-11-30T12:03:49.417Z,92.68
2022-11-30T12:04:49.402Z,92.88
2022-11-30T12:05:49.356Z,92.88
2022-11-30T12:06:49.351Z,92.57
2022-11-30T12:07:49.404Z,91.65
2022-11-30T12:08:49.340Z,92.16
2022-11-30T12:09:49.477Z,92.68
2022-11-30T12:10:52.097Z,92.78
2022-11-30T12:11:50.313Z,92.36
2022-11-30T12:12:54.545Z,91.96
2022-11-30T12:13:51.319Z,92.21
2022-11-30T12:14:49.301Z,92.51
2022-11-30T12:15:49.324Z,92.72
2022-11-30T12:16:49.288Z,93.33
2022-11-30T12:17:49.285Z,93.64
2022-11-30T12:18:49.266Z,93.85
2022-11-30T12:19:49.483Z,93.23
2022-11-30T12:20:49.257Z,94.05
2022-11-30T12:21:49.249Z,93.64
2022-11-30T12:22:49.241Z,93.44
2022-11-30T12:23:49.248Z,92.61
2022-11-30T12:24:49.234Z,93.68
2022-11-30T12:25:49.224Z,93.89
2022-11-30T12:26:49.237Z,93.79
2022-11-30T12:27:53.608Z,93.17
2022-11-30T12:28:50.205Z,92.86
2022-11-30T12:29:49.575Z,92.97
2022-11-30T12:30:49.193Z,93.21
2022-11-30T12:31:49.223Z,93.27
2022-11-30T12:32:49.177Z,93.68
2022-11-30T12:33:49.161Z,93.27
2022-11-30T12:34:49.174Z,93.21
2022-11-30T12:35:49.161Z,93.17
2022-11-30T12:36:49.144Z,93.68
2022-11-30T12:37:49.137Z,93.68
2022-11-30T12:38:49.125Z,93.83
2022-11-30T12:39:49.667Z,93.99
2022-11-30T12:40:49.117Z,93.83
2022-11-30T12:41:49.113Z,94.24
2022-11-30T12:42:49.107Z,93.83
2022-11-30T12:43:49.096Z,94.14
2022-11-30T12:44:49.103Z,94.10
2022-11-30T12:45:49.082Z,94.24
2022-11-30T12:46:49.163Z,93.93
2022-11-30T12:47:50.060Z,94.55
2022-11-30T12:48:49.160Z,93.93
2022-11-30T12:49:49.325Z,94.04
2022-11-30T12:50:49.052Z,93.99
2022-11-30T12:51:49.033Z,93.52
2022-11-30T12:52:49.024Z,94.30
2022-11-30T12:53:49.018Z,93.63
2022-11-30T12:54:49.261Z,93.99